ROMMA est une association bénévole à but non lucratif. Votre soutien est indispensable : ADHERER à ROMMA ou FAIRE un DON

Le Versoud - (38, Isère)

Vallée du Grésivaudan (220 m)   Longitude: 05° 51' 44" E   Latitude: 45° 13' 06" N Station partenaire n°6
 

Détail journalier du     <<     >>

Température Humidité Pression Vent Dir Rafale Dir. rafale Ensol.
Heure (°C) (%) (hPa) (km/h) (km/h) (min)
01:00 25.082102000---0
02:00 24.180102000---0
03:00 23.385102000---0
04:00 22.486102000---0
05:00 21.789102000---0
06:00 21.190102000---0
07:00 21.289102100---0
08:00 24.479102100---40
09:00 26.073102100---60
10:00 27.765102100---60
11:00 29.259102002NO60
12:00 31.349102003NNO60
13:00 32.943101903N45
14:00 33.345101803N0
15:00 34.241101805N40
16:00 35.837101703N60
17:00 35.841101606NNO60
18:00 36.543101506NNO60
19:00 37.341101500---60
20:00 34.650101503NNO60
21:00 31.364101502NNO25
22:00 28.966101602NNO0
23:00 26.875101600---0
minuit 25.470101700---0

Graphique du 27-06-2019

 

Serveur OMMA